Weather observations for the past three days for
Mount Sterling-Montgomery County Airport
Metric (Imperial)
Date Time (edt) Wind (kph) Vis. (km) Weather Sky Cond. Temperature (ºC) Relative Humidity Wind Chill (°C) Heat Index (°C) Pressure Precipitation (cm)
Air Dwpt 6 hour altimeter (cm) sea level (mb) 1 hr 3 hr 6 hr
Max. Min.
07 17:15 N 7 16.09 Fair CLR 16 0 34% 76.1 0.0
07 16:15 W 9 16.09 Fair CLR 17 1 34% 76.12 0.0
07 15:55 N 17 16.09 Partly Cloudy SCT060 17 1 34% 76.12 0.0
07 15:35 N 7 16.09 Partly Cloudy SCT060 16 1 36% 76.12 0.0
07 15:15 NW 11 G 26 16.09 Fair CLR 16 2 39% 76.15 0.0
07 14:55 W 7 16.09 Fair CLR 16 1 36% 76.15 0.0
07 14:35 N 9 16.09 Partly Cloudy SCT060 16 1 36% 76.15 0.0
07 14:15 NW 7 16.09 Partly Cloudy SCT060 15 1 39% 76.15 0.0
07 13:55 W 15 16.09 Fair CLR 15 2 42% 76.15 0.0
07 13:35 N 9 16.09 Partly Cloudy SCT050 15 1 39% 76.17 0.0
07 13:15 NW 6 16.09 Partly Cloudy SCT050 14 2 44% 76.2 0.0
07 12:55 N 19 16.09 Fair CLR 15 2 42% 76.2 0.0
07 12:35 NW 9 16.09 Partly Cloudy SCT050 15 2 42% 76.2 0.0
07 12:15 N 15 0.00 NULL NULL 14 2 44% 76.23 0.0
07 11:55 N 13 16.09 Fair CLR 15 2 42% 76.23 0.0
07 11:35 N 7 16.09 Fair CLR 14 2 44% 76.23 0.0
07 11:15 N 7 16.09 Fair CLR 13 1 44% 76.23 0.0
07 10:55 NW 7 16.09 Fair CLR 13 1 44% 76.2 0.0
07 10:35 N 11 16.09 Fair CLR 13 1 44% 76.2 0.0
07 10:15 NE 9 16.09 Fair CLR 12 2 51% 76.2 0.0
07 09:55 NE 9 16.09 Fair CLR 12 2 51% 76.2 0.0
07 09:35 NE 9 16.09 Fair CLR 12 3 54% 76.23 0.0
07 09:15 NE 13 16.09 Fair CLR 11 3 58% 76.23 0.0
07 08:55 NE 6 16.09 Fair CLR 11 3 58% 76.23 0.0
07 08:35 NE 11 16.09 Fair CLR 10 4 67% 9 76.25 0.0
07 08:15 NE 7 16.09 Fair CLR 10 5 71% 9 76.25 0.0
07 07:55 N 7 16.09 Fair CLR 8 5 82% 7 76.23 0.0
07 07:35 Calm 16.09 Fair CLR 7 5 87% 76.23 0.0
07 07:15 N 7 16.09 Fair CLR 7 5 87% 6 76.2 0.0
07 06:55 N 6 16.09 Fair CLR 6 5 93% 76.17 0.0
07 06:35 Calm 16.09 Fair CLR 6 6 100% 76.17 0.0
07 06:15 Calm 16.09 Fair CLR 6 6 100% 76.17 0.0
07 05:55 Calm 16.09 Partly Cloudy SCT050 7 6 93% 76.17 0.0
07 05:35 Calm 16.09 Partly Cloudy SCT050 7 6 93% 76.15 0.0
07 05:15 Calm 16.09 Mostly Cloudy BKN050 7 7 100% 76.15 0.0
07 04:55 Calm 16.09 Partly Cloudy SCT050 8 7 93% 76.15 0.0
07 04:35 Calm 16.09 Fair CLR 8 7 93% 76.15 0.0
07 04:15 Calm 16.09 Fair CLR 9 7 87% 76.15 0.0
07 03:55 Calm 16.09 Fair CLR 10 6 76% 76.12 0.0
07 03:35 Calm 16.09 Fair CLR 10 7 82% 76.15 0.0
07 03:15 Calm 16.09 Fair CLR 10 7 82% 76.12 0.0
07 02:55 Calm 16.09 Fair CLR 10 7 82% 76.15 0.0
07 02:35 N 6 16.09 Fair CLR 10 7 82% 76.15 0.0
07 02:15 Calm 16.09 Fair CLR 10 7 82% 76.17 0.0
07 01:55 Calm 16.09 Partly Cloudy SCT049 11 7 77% 76.15 0.0
07 01:35 Calm 16.09 Mostly Cloudy SCT049 BKN055 11 6 72% 76.15 0.0
07 01:15 Calm 16.09 Overcast SCT046 OVC055 11 6 72% 76.17 0.0
07 00:55 Calm 16.09 Overcast OVC046 11 6 72% 76.17 0.0
07 00:35 Calm 16.09 Overcast OVC048 12 6 67% 76.17 0.0
07 00:15 Calm 16.09 Overcast OVC048 12 6 67% 76.2 0.0
06 23:55 Calm 16.09 Overcast OVC048 12 6 67% 76.2 0.0
06 23:35 N 6 16.09 Overcast OVC046 12 6 67% 76.2 0.0
06 23:15 N 6 16.09 Overcast OVC046 12 6 67% 76.17 0.0
06 22:55 N 6 16.09 Overcast OVC044 12 6 67% 76.15 0.0
06 22:35 N 9 16.09 Overcast OVC044 12 6 67% 76.15 0.0
06 22:15 N 7 16.09 Overcast OVC044 12 6 67% 76.12 0.0
06 21:55 N 7 16.09 Overcast OVC046 13 7 67% 76.12 0.0
06 21:35 Calm 16.09 Overcast OVC046 13 8 72% 76.12 0.0
06 21:15 Calm 16.09 Overcast OVC046 12 10 88% 76.12 0.0
06 20:55 Calm 16.09 Overcast OVC044 13 8 72% 76.1 0.0
06 20:35 Calm 16.09 Overcast OVC044 13 8 72% 76.1 0.0
06 20:15 Calm 16.09 Overcast OVC042 13 8 72% 76.07 0.0
06 19:55 N 7 16.09 Overcast OVC042 13 8 72% 76.02 0.0
06 19:35 Calm 16.09 Overcast BKN042 OVC047 14 8 67% 76.05 0.0
06 19:15 N 7 16.09 Overcast OVC042 15 8 63% 76.02 0.0
06 18:55 Calm 16.09 Overcast OVC044 15 8 63% 76.05 0.0
06 18:35 N 6 16.09 Overcast SCT037 OVC044 15 8 63% 76 0.0
06 18:15 N 6 16.09 Overcast SCT034 OVC044 15 8 63% 76 0.0
06 17:55 Calm 16.09 Overcast OVC034 15 8 63% 76.02 0.0
06 17:35 NW 6 16.09 Overcast BKN029 OVC035 15 9 68% 76.02 0.0
06 17:15 NE 6 16.09 Overcast BKN029 OVC043 15 9 68% 76 0.0
06 16:55 N 9 16.09 Overcast SCT029 OVC043 16 8 59% 76 0.0
06 16:35 NW 6 16.09 Overcast BKN029 OVC043 15 8 63% 76 0.0
06 16:15 NW 6 16.09 Overcast BKN029 BKN033 OVC044 15 8 63% 76.02 0.0
06 15:55 Calm 16.09 Overcast SCT027 BKN031 OVC044 15 9 68% 76.07 0.0
06 15:35 NW 6 16.09 Overcast BKN027 OVC031 15 9 68% 76.02 0.0
06 15:15 N 7 16.09 Overcast BKN025 OVC044 15 9 68% 76.02 0.0
06 14:55 NW 6 16.09 Overcast BKN023 OVC028 15 9 68% 76.02 0.0
06 14:35 N 9 16.09 Overcast OVC025 15 9 68% 76.02 0.0
06 14:15 Calm 16.09 Overcast OVC023 14 9 72% 76 0.0
06 13:55 N 11 16.09 Overcast BKN021 OVC026 15 9 68% 76 0.0
06 13:35 NE 7 16.09 Overcast OVC019 14 10 77% 76 0.0
06 13:15 NE 11 16.09 Overcast BKN017 OVC022 13 9 77% 76.02 0.0
06 12:55 N 9 16.09 Overcast BKN014 OVC021 13 9 77% 76.02 0.0
06 12:35 N 7 16.09 Overcast OVC012 13 10 82% 76.02 0.0
06 12:15 NE 6 16.09 Overcast OVC010 13 10 82% 76.02 0.0
06 11:55 NE 6 16.09 Overcast BKN008 OVC025 12 10 88% 76 0.0
06 11:35 N 6 16.09 Overcast OVC006 11 9 88% 76 0.0
06 11:15 N 7 16.09 Overcast OVC006 10 8 88% 9 76 0.0
06 10:55 N 11 16.09 Overcast OVC006 10 8 88% 9 75.97 0.0
06 10:35 N 11 16.09 Overcast OVC006 10 8 88% 9 75.97 0.0
06 10:15 N 9 16.09 Overcast OVC006 9 8 94% 8 75.95 0.0
06 09:55 N 13 16.09 Overcast OVC006 9 8 94% 7 75.92 0.0
06 09:35 N 13 16.09 Overcast BKN006 OVC015 9 8 94% 7 75.9 0.0
06 09:15 N 15 16.09 Overcast SCT004 OVC015 9 8 94% 7 75.9 0.0
06 08:55 N 6 16.09 Overcast OVC004 8 8 100% 75.9 0.0
06 08:35 N 11 4.83 Overcast OVC004 8 8 100% 6 75.87 0.0
06 08:15 N 11 4.83 Overcast OVC002 9 8 94% 8 75.82 0.0
06 07:55 N 9 8.05 Overcast OVC004 10 9 94% 9 75.79 0.0 0.03
06 07:35 NW 13 16.09 Overcast OVC004 10 10 100% 8 75.79 0.0 0.03
06 07:15 N 9 16.09 Overcast OVC004 10 10 100% 9 75.74 0.0 0.03
06 06:55 N 11 16.09 Overcast OVC004 11 10 94% 75.72 0.0 0.03
06 06:35 N 19 G 26 16.09 Overcast OVC006 13 13 100% 75.69 0.0 0.03
06 06:15 W 6 16.09 Overcast OVC004 15 14 94% 75.59 0.0 0.03
06 05:55 W 7 11.27 Overcast OVC004 15 14 94% 75.59 0.0 0.43
06 05:35 W 11 8.05 Overcast BKN006 OVC014 15 14 94% 75.64 0.0 0.2
06 05:15 W 13 11.27 Overcast SCT008 BKN016 OVC023 15 14 94% 75.59 0.0 0.05
06 04:55 W 7 8.05 Overcast SCT008 BKN016 OVC021 15 14 94% 75.59 0.0 0.15
06 04:35 W 11 11.27 Overcast SCT006 BKN010 OVC014 15 14 94% 75.57 0.0 0.1
06 04:15 W 9 11.27 Overcast BKN009 BKN014 OVC021 15 14 94% 75.57 0.0 0.08
06 03:55 W 9 16.09 Overcast SCT016 SCT021 OVC030 15 14 94% 75.51 0.0 0.2
06 03:35 SW 11 16.09 Overcast OVC035 15 13 88% 75.49 0.0 0.13
06 03:15 SW 11 16.09 Overcast OVC035 15 13 88% 75.49 0.0 0.08
06 02:55 SW 11 16.09 Overcast OVC037 15 13 88% 75.49 0.0 0.48
06 02:15 SW 19 G 35 11.27 Overcast SCT028 BKN039 OVC080 15 13 88% 75.54 0.0 0.33
06 01:55 SW 17 G 30 11.27 Overcast SCT024 SCT029 OVC037 15 13 88% 75.54 0.0 0.18
06 01:35 SW 17 16.09 Overcast OVC039 15 13 88% 75.57 0.0
06 01:15 SW 11 16.09 Overcast OVC041 15 13 88% 75.59 0.0
06 00:55 S 13 16.09 Overcast OVC041 15 13 88% 75.59 0.0 0.25
06 00:35 SW 13 11.27 Overcast OVC041 15 13 88% 75.64 0.0 0.23
06 00:15 SW 13 11.27 Overcast BKN041 OVC047 15 12 82% 75.67 0.0 0.08
05 23:55 SW 22 G 39 16.09 Overcast SCT037 OVC047 16 12 77% 75.69 0.0 0.03
05 23:35 W 26 G 50 16.09 Overcast BKN048 OVC050 17 11 68% 75.69 0.0
05 23:15 W 19 G 33 16.09 Overcast BKN060 OVC070 18 11 64% 75.67 0.0
05 22:55 SW 13 16.09 Overcast OVC070 17 12 73% 75.67 0.0
05 22:15 S 9 16.09 Overcast BKN070 OVC080 16 13 83% 75.64 0.0
05 21:55 S 6 16.09 Mostly Cloudy SCT070 SCT080 BKN095 16 14 88% 75.64 0.0 0.03
05 21:35 Calm 16.09 Partly Cloudy SCT050 SCT060 16 14 88% 75.64 0.0 0.03
05 21:15 Calm 16.09 Mostly Cloudy SCT050 SCT060 BKN080 17 13 77% 75.69 0.0
05 20:55 Calm 16.09 Overcast OVC080 18 12 68% 75.69 0.0
05 20:35 Calm 16.09 Overcast BKN070 BKN095 OVC110 18 12 68% 75.67 0.0
05 20:15 SW 6 16.09 Overcast SCT042 BKN090 OVC110 18 12 68% 75.69 0.0
05 19:55 S 11 16.09 Overcast SCT070 OVC080 20 11 56% 75.67 0.0
05 19:35 S 9 16.09 Overcast OVC080 20 12 60% 75.69 0.0
05 19:15 S 7 16.09 Overcast OVC070 20 12 60% 75.69 0.0
05 18:55 Calm 16.09 Overcast OVC070 20 12 60% 75.72 0.0
05 18:35 Calm 16.09 Overcast SCT060 OVC080 20 12 60% 75.74 0.0
05 18:15 Calm 16.09 Overcast SCT070 OVC090 20 12 60% 75.77 0.0
05 17:55 SW 7 16.09 Overcast SCT070 OVC090 20 12 60% 75.77 0.0
05 17:35 Calm 16.09 Overcast SCT050 SCT060 OVC090 20 12 60% 75.77 0.0
05 17:15 SW 15 16.09 Overcast BKN050 BKN060 OVC085 20 12 60% 75.77 0.0
05 16:55 SW 17 G 28 16.09 Overcast BKN048 BKN050 OVC085 21 11 53% 75.79 0.0
05 16:35 SW 19 G 30 16.09 Mostly Cloudy SCT034 SCT043 BKN050 21 11 53% 75.79 0.0
05 16:15 SW 22 G 35 16.09 Partly Cloudy SCT050 SCT065 21 11 53% 75.79 0.0
05 15:55 SW 28 G 41 16.09 Partly Cloudy SCT050 SCT065 22 11 50% 75.84 0.0
05 15:35 SW 26 G 37 16.09 Partly Cloudy SCT050 21 11 53% 75.84 0.0
05 15:15 SW 24 G 35 16.09 Partly Cloudy SCT050 21 11 53% 75.87 0.0
05 14:55 SW 20 G 35 16.09 Partly Cloudy SCT050 SCT060 21 11 53% 75.9 0.0
05 14:35 SW 20 G 31 16.09 Mostly Cloudy BKN050 BKN060 21 11 53% 75.9 0.0
05 14:15 SW 20 G 35 16.09 Mostly Cloudy BKN050 21 11 53% 75.9 0.0
05 13:55 SW 30 G 43 16.09 Partly Cloudy SCT050 SCT065 21 11 53% 75.92 0.0
05 13:35 SW 17 G 37 16.09 Partly Cloudy SCT050 SCT065 21 11 53% 75.95 0.0
05 13:15 SW 24 G 39 16.09 Partly Cloudy SCT050 21 11 53% 75.95 0.0
05 12:55 SW 24 G 31 16.09 Fair CLR 22 11 50% 75.95 0.0
05 12:35 SW 22 G 31 16.09 Fair CLR 21 11 53% 75.95 0.0
05 12:15 SW 20 G 37 16.09 Fair CLR 21 11 53% 75.97 0.0
05 11:55 SW 20 G 30 16.09 Fair CLR 21 11 53% 75.97 0.0
05 11:35 SW 17 16.09 Fair CLR 21 11 53% 75.95 0.0
05 11:15 SW 15 G 26 16.09 Fair CLR 20 11 56% 75.95 0.0
05 10:55 SW 17 G 26 16.09 Fair CLR 20 10 53% 75.95 0.0
05 10:35 SW 15 G 28 16.09 Fair CLR 20 10 53% 75.95 0.0
05 10:15 SW 15 16.09 Fair CLR 20 11 56% 75.95 0.0
05 09:55 SW 11 16.09 Fair CLR 20 10 53% 75.95 0.0
05 09:35 SW 19 16.09 Partly Cloudy SCT060 SCT070 19 10 56% 75.97 0.0
05 09:15 SW 15 0.00 NULL NULL 18 9 56% 75.97 0.0
05 08:35 Calm 16.09 Partly Cloudy SCT080 17 9 60% 75.95 0.0
05 08:15 SW 13 16.09 Partly Cloudy SCT075 SCT080 SCT090 17 8 56% 75.95 0.0
05 07:55 SW 7 16.09 Overcast BKN060 OVC075 16 8 59% 75.95 0.0
05 07:35 SW 11 16.09 Overcast OVC060 16 8 59% 75.95 0.0
05 07:15 SW 9 16.09 Overcast OVC060 16 8 59% 75.92 0.0
05 06:55 Calm 16.09 Mostly Cloudy BKN060 16 8 59% 75.9 0.0
05 06:35 SW 13 16.09 Fair CLR 16 8 59% 75.87 0.0
05 06:15 SW 13 16.09 Fair CLR 16 8 59% 75.87 0.0
05 05:55 SW 15 16.09 Fair CLR 16 8 59% 75.84 0.0
05 05:35 SW 15 16.09 Fair CLR 16 8 59% 75.84 0.0
05 05:15 Calm 16.09 Fair CLR 16 8 59% 75.84 0.0
05 04:55 SW 7 16.09 Fair CLR 16 8 59% 75.82 0.0
05 04:35 SW 15 16.09 Fair CLR 16 8 59% 75.79 0.0
05 04:15 SW 15 16.09 Fair CLR 16 8 59% 75.82 0.0
05 03:55 SW 13 16.09 Fair CLR 16 8 59% 75.79 0.0
05 03:35 SW 11 16.09 Fair CLR 17 8 56% 75.77 0.0
05 03:15 Calm 16.09 Fair CLR 17 8 56% 75.79 0.0
05 02:55 Calm 16.09 Fair CLR 17 8 56% 75.79 0.0
05 02:35 SW 13 16.09 Fair CLR 17 8 56% 75.79 0.0
05 02:15 SW 7 16.09 Fair CLR 17 8 56% 75.79 0.0
05 01:55 Calm 16.09 Fair CLR 17 9 60% 75.82 0.0
05 01:35 Calm 16.09 Fair CLR 18 9 56% 75.82 0.0
05 01:15 SW 15 16.09 Fair CLR 18 9 56% 75.82 0.0
05 00:55 SW 17 16.09 Fair CLR 19 9 52% 75.82 0.0
05 00:35 SW 13 16.09 Fair CLR 19 9 52% 75.82 0.0
05 00:15 SW 17 G 26 16.09 Fair CLR 19 9 52% 75.79 0.0
04 23:55 Calm 16.09 Fair CLR 19 9 52% 75.77 0.0
04 23:35 Calm 16.09 Fair CLR 19 9 52% 75.77 0.0
04 23:15 SW 9 16.09 Fair CLR 19 10 56% 75.77 0.0
04 22:55 Calm 16.09 Fair CLR 19 10 56% 75.74 0.0
04 22:35 Calm 16.09 Fair CLR 19 9 52% 75.72 0.0
04 22:15 Calm 16.09 Fair CLR 20 10 53% 75.72 0.0
04 21:55 Calm 16.09 Fair CLR 20 10 53% 75.69 0.0
04 21:35 Calm 16.09 Fair CLR 20 10 53% 75.72 0.0
04 21:15 Calm 16.09 Fair CLR 21 10 50% 75.69 0.0
04 20:55 Calm 16.09 Fair CLR 21 10 50% 75.69 0.0
04 20:35 Calm 16.09 Partly Cloudy SCT080 21 10 50% 75.69 0.0
04 20:15 Calm 16.09 Partly Cloudy SCT070 SCT085 22 10 47% 75.69 0.0
04 19:55 SW 7 16.09 Partly Cloudy SCT070 SCT085 22 10 47% 75.72 0.0
04 19:35 SW 13 16.09 Partly Cloudy SCT095 23 10 44% 75.72 0.0
04 19:15 Calm 16.09 Partly Cloudy SCT070 SCT095 23 10 44% 75.74 0.0
04 18:55 W 19 G 31 16.09 Fair CLR 24 10 41% 25 75.74 0.0
04 18:35 Calm 16.09 Fair CLR 25 10 39% 26 75.74 0.0
04 18:15 W 22 G 31 16.09 Fair CLR 25 10 39% 26 75.77 0.0
04 17:55 W 19 G 33 16.09 Fair CLR 25 10 39% 26 75.77 0.0
04 17:35 W 24 G 43 16.09 Fair CLR 25 10 39% 26 75.77 0.0
Date Time (edt) Wind (kph) Vis. (km) Weather Sky Cond. Air Dwpt Max. Min. Relative Humidity Wind Chill (°C) Heat Index (°C) altimeter (cm) sea level (mb) 1 hr 3 hr 6 hr
6 hour
Temperature (ºC) Pressure Precipitation (cm)